Time;durP1;ratioP1;P1;durP2;ratioP2;P2;SDS_P1;SDS_P2;PMS_P1;PMS_P2;Temp;Humidity;BMP_temperature;BMP_pressure;BME280_temperature;BME280_humidity;BME280_pressure;Samples;Min_cycle;Max_cycle;Signal;HPM_P1;HPM_P2
2021/08/27 00:02:02;;;;;;;;;;;;;;;;;;5011969;28;19952;-64
2021/08/27 00:04:31;;;;;;;;;;;;;;;;;;5014110;28;20382;-64
2021/08/27 00:06:58;;;;;;;;;;;;;;;;;;5012916;28;19926;-65
2021/08/27 00:09:25;;;;;;;;;;;;;;;;;;5022868;28;19931;-64
2021/08/27 00:11:52;;;;;;;;;;;;;;;;;;5012444;28;19929;-64
2021/08/27 00:14:19;;;;;;;;;;;;;;;;;;5016194;28;20282;-64
2021/08/27 00:16:46;;;;;;;;;;;;;;;;;;5015041;28;19926;-64
2021/08/27 00:19:13;;;;;;;;;;;;;;;;;;5020596;28;20419;-64
2021/08/27 00:21:40;;;;;;;;;;;;;;;;;;5013369;28;19936;-64
2021/08/27 00:24:07;;;;;;;;;;;;;;;;;;5016685;28;20016;-64
2021/08/27 00:26:34;;;;;;;;;;;;;;;;;;5010085;28;19926;-64
2021/08/27 00:29:01;;;;;;;;;;;;;;;;;;5018740;28;19939;-64
2021/08/27 00:31:28;;;;;;;;;;;;;;;;;;5011036;28;19932;-64
2021/08/27 00:33:55;;;;;;;;;;;;;;;;;;5009552;28;19926;-64
2021/08/27 00:36:22;;;;;;;;;;;;;;;;;;5015743;28;19929;-65
2021/08/27 00:38:49;;;;;;;;;;;;;;;;;;5015177;28;19925;-65
2021/08/27 00:41:16;;;;;;;;;;;;;;;;;;5012695;28;19925;-64
2021/08/27 00:43:43;;;;;;;;;;;;;;;;;;5014530;28;19925;-64
2021/08/27 00:46:10;;;;;;;;;;;;;;;;;;5011382;28;19926;-64
2021/08/27 00:48:37;;;;;;;;;;;;;;;;;;5016543;28;20011;-65
2021/08/27 00:51:04;;;;;;;;;;;;;;;;;;5013644;28;19925;-65
2021/08/27 00:53:31;;;;;;;;;;;;;;;;;;5015032;28;19980;-69
2021/08/27 00:55:58;;;;;;;;;;;;;;;;;;5019810;28;19926;-64
2021/08/27 00:58:25;;;;;;;;;;;;;;;;;;5017583;28;19925;-64
2021/08/27 01:00:52;;;;;;;;;;;;;;;;;;5011109;28;19930;-64
2021/08/27 01:03:19;;;;;;;;;;;;;;;;;;5006831;28;19925;-65
2021/08/27 01:05:46;;;;;;;;;;;;;;;;;;5013151;28;19926;-64
2021/08/27 01:08:13;;;;;;;;;;;;;;;;;;5012683;28;19925;-64
2021/08/27 01:10:40;;;;;;;;;;;;;;;;;;5012474;28;19926;-64
2021/08/27 01:13:07;;;;;;;;;;;;;;;;;;5009861;28;19932;-65
2021/08/27 01:15:34;;;;;;;;;;;;;;;;;;5010727;28;19925;-65
2021/08/27 01:18:01;;;;;;;;;;;;;;;;;;5017039;28;19941;-64
2021/08/27 01:20:28;;;;;;;;;;;;;;;;;;5017007;28;20389;-64
2021/08/27 01:22:55;;;;;;;;;;;;;;;;;;5011132;28;19925;-64
2021/08/27 01:25:22;;;;;;;;;;;;;;;;;;5008508;28;19936;-64
2021/08/27 01:27:49;;;;;;;;;;;;;;;;;;5014825;28;19984;-64
2021/08/27 01:30:16;;;;;;;;;;;;;;;;;;5012614;28;19933;-64
2021/08/27 01:32:43;;;;;;;;;;;;;;;;;;5007399;28;19933;-64
2021/08/27 01:35:10;;;;;;;;;;;;;;;;;;5014463;28;19937;-64
2021/08/27 01:37:37;;;;;;;;;;;;;;;;;;5010047;28;19925;-64
2021/08/27 01:40:04;;;;;;;;;;;;;;;;;;5010376;28;19929;-65
2021/08/27 01:42:31;;;;;;;;;;;;;;;;;;5014573;28;19937;-64
2021/08/27 01:44:58;;;;;;;;;;;;;;;;;;5013552;28;19937;-65
2021/08/27 01:47:25;;;;;;;;;;;;;;;;;;5016271;28;19952;-64
2021/08/27 01:49:52;;;;;;;;;;;;;;;;;;5014118;28;19936;-64
2021/08/27 01:52:19;;;;;;;;;;;;;;;;;;5011250;28;19926;-64
2021/08/27 01:54:46;;;;;;;;;;;;;;;;;;5013429;28;19933;-65
2021/08/27 01:57:13;;;;;;;;;;;;;;;;;;5021922;28;20385;-64
2021/08/27 01:59:40;;;;;;;;;;;;;;;;;;5015604;28;19926;-65
2021/08/27 02:02:07;;;;;;;;;;;;;;;;;;5007553;28;19926;-64
2021/08/27 02:04:34;;;;;;;;;;;;;;;;;;5016433;28;19952;-64
2021/08/27 02:07:01;;;;;;;;;;;;;;;;;;5010999;28;19932;-64
2021/08/27 02:09:28;;;;;;;;;;;;;;;;;;5010247;28;19925;-64
2021/08/27 02:11:55;;;;;;;;;;;;;;;;;;5005157;28;20258;-64
2021/08/27 02:14:22;;;;;;;;;;;;;;;;;;5009740;28;19932;-64
2021/08/27 02:16:49;;;;;;;;;;;;;;;;;;5021602;28;19925;-64
2021/08/27 02:19:16;;;;;;;;;;;;;;;;;;5012133;28;19933;-64
2021/08/27 02:21:43;;;;;;;;;;;;;;;;;;5013404;28;19929;-64
2021/08/27 02:24:11;;;;;;;;;;;;;;;;;;5013173;28;20028;-64
2021/08/27 02:26:38;;;;;;;;;;;;;;;;;;5019595;28;19965;-64
2021/08/27 02:29:05;;;;;;;;;;;;;;;;;;5022115;28;19932;-64
2021/08/27 02:31:32;;;;;;;;;;;;;;;;;;5017033;28;19935;-64
2021/08/27 02:33:59;;;;;;;;;;;;;;;;;;5016424;28;20267;-64
2021/08/27 02:36:26;;;;;;;;;;;;;;;;;;5016229;28;20242;-64
2021/08/27 02:38:53;;;;;;;;;;;;;;;;;;5018276;28;19933;-64
2021/08/27 02:41:20;;;;;;;;;;;;;;;;;;5013189;28;19936;-64
2021/08/27 02:43:47;;;;;;;;;;;;;;;;;;5019896;28;19933;-64
2021/08/27 02:46:14;;;;;;;;;;;;;;;;;;5020123;28;19932;-64
2021/08/27 02:48:41;;;;;;;;;;;;;;;;;;5012736;28;20301;-65
2021/08/27 02:51:08;;;;;;;;;;;;;;;;;;5012806;28;19925;-65
2021/08/27 02:53:35;;;;;;;;;;;;;;;;;;5014981;28;19947;-65
2021/08/27 02:56:02;;;;;;;;;;;;;;;;;;5015770;28;19929;-65
2021/08/27 02:58:29;;;;;;;;;;;;;;;;;;5018148;28;20420;-65
2021/08/27 03:00:56;;;;;;;;;;;;;;;;;;5018561;28;19925;-65
2021/08/27 03:03:23;;;;;;;;;;;;;;;;;;5017542;28;19932;-65
2021/08/27 03:05:50;;;;;;;;;;;;;;;;;;5017744;28;20394;-65
2021/08/27 03:08:18;;;;;;;;;;;;;;;;;;5012440;28;19925;-64
2021/08/27 03:10:45;;;;;;;;;;;;;;;;;;5016778;28;19972;-65
2021/08/27 03:13:12;;;;;;;;;;;;;;;;;;5013669;28;19929;-64
2021/08/27 03:15:39;;;;;;;;;;;;;;;;;;5014915;28;19932;-65
2021/08/27 03:18:06;;;;;;;;;;;;;;;;;;5013330;28;19933;-65
2021/08/27 03:20:33;;;;;;;;;;;;;;;;;;5017941;28;20012;-65
2021/08/27 03:23:00;;;;;;;;;;;;;;;;;;5019018;28;19933;-65
2021/08/27 03:25:27;;;;;;;;;;;;;;;;;;5016150;28;19925;-64
2021/08/27 03:27:54;;;;;;;;;;;;;;;;;;5014405;28;19925;-64
2021/08/27 03:30:21;;;;;;;;;;;;;;;;;;5019865;28;19925;-65
2021/08/27 03:32:48;;;;;;;;;;;;;;;;;;5019121;28;20510;-64
2021/08/27 03:35:15;;;;;;;;;;;;;;;;;;5014884;28;19969;-64
2021/08/27 03:37:42;;;;;;;;;;;;;;;;;;5015147;28;20299;-66
2021/08/27 03:40:09;;;;;;;;;;;;;;;;;;5018364;28;19932;-65
2021/08/27 03:42:36;;;;;;;;;;;;;;;;;;5037419;22;19925;-73
2021/08/27 03:45:03;;;;;;;;;;;;;;;;;;5033283;28;19929;-73
2021/08/27 03:47:30;;;;;;;;;;;;;;;;;;5030560;28;20182;-73
2021/08/27 03:49:57;;;;;;;;;;;;;;;;;;5033004;28;19932;-74
2021/08/27 03:52:24;;;;;;;;;;;;;;;;;;5033063;28;19925;-73
2021/08/27 03:54:51;;;;;;;;;;;;;;;;;;5028387;28;20090;-73
2021/08/27 03:57:18;;;;;;;;;;;;;;;;;;5030559;28;19926;-74
2021/08/27 03:59:45;;;;;;;;;;;;;;;;;;5023256;28;20467;-73
2021/08/27 04:02:12;;;;;;;;;;;;;;;;;;5031636;28;20019;-74
2021/08/27 04:04:39;;;;;;;;;;;;;;;;;;5034468;28;19980;-74
2021/08/27 04:07:06;;;;;;;;;;;;;;;;;;5033062;28;20031;-73
2021/08/27 04:09:33;;;;;;;;;;;;;;;;;;5032036;28;20282;-74
2021/08/27 04:12:00;;;;;;;;;;;;;;;;;;5032175;28;20103;-73
2021/08/27 04:14:27;;;;;;;;;;;;;;;;;;5028759;28;19932;-74
2021/08/27 04:16:54;;;;;;;;;;;;;;;;;;5033277;28;20348;-74
2021/08/27 04:19:21;;;;;;;;;;;;;;;;;;5031808;28;20436;-75
2021/08/27 04:21:48;;;;;;;;;;;;;;;;;;5028577;28;20033;-74
2021/08/27 04:24:15;;;;;;;;;;;;;;;;;;5030756;28;20024;-73
2021/08/27 04:26:41;;;;;;;;;;;;;;;;;;5033240;28;19928;-73
2021/08/27 04:29:11;;;;;;;;;;;;;;;;;;5031613;28;19925;-74
2021/08/27 04:31:38;;;;;;;;;;;;;;;;;;5028539;28;19925;-75
2021/08/27 04:34:05;;;;;;;;;;;;;;;;;;5031401;28;19929;-74
2021/08/27 04:36:32;;;;;;;;;;;;;;;;;;5031194;28;19929;-74
2021/08/27 04:38:59;;;;;;;;;;;;;;;;;;5031681;28;19978;-74
2021/08/27 04:41:26;;;;;;;;;;;;;;;;;;5025194;28;20028;-74
2021/08/27 04:43:53;;;;;;;;;;;;;;;;;;5029153;28;19925;-74
2021/08/27 04:46:20;;;;;;;;;;;;;;;;;;5030440;28;20007;-74
2021/08/27 04:48:47;;;;;;;;;;;;;;;;;;5035140;28;20028;-73
2021/08/27 04:51:14;;;;;;;;;;;;;;;;;;5029433;28;20000;-74
2021/08/27 04:53:41;;;;;;;;;;;;;;;;;;5024036;28;19925;-74
2021/08/27 04:56:08;;;;;;;;;;;;;;;;;;5028144;28;20419;-74
2021/08/27 04:58:35;;;;;;;;;;;;;;;;;;5028668;28;19935;-75
2021/08/27 05:01:02;;;;;;;;;;;;;;;;;;5032152;28;19929;-74
2021/08/27 05:03:29;;;;;;;;;;;;;;;;;;5031743;28;19935;-73
2021/08/27 05:05:56;;;;;;;;;;;;;;;;;;5026670;28;19925;-75
2021/08/27 05:08:23;;;;;;;;;;;;;;;;;;5019532;28;20020;-74
2021/08/27 05:10:50;;;;;;;;;;;;;;;;;;5023463;28;20354;-75
2021/08/27 05:13:17;;;;;;;;;;;;;;;;;;5028002;28;19973;-74
2021/08/27 05:15:44;;;;;;;;;;;;;;;;;;5023761;28;20500;-72
2021/08/27 05:18:11;;;;;;;;;;;;;;;;;;5021543;28;19964;-74
2021/08/27 05:20:38;;;;;;;;;;;;;;;;;;5026842;28;20417;-74
2021/08/27 05:23:05;;;;;;;;;;;;;;;;;;5027328;28;19932;-74
2021/08/27 05:25:31;;;;;;;;;;;;;;;;;;5025739;28;19929;-74
2021/08/27 05:27:58;;;;;;;;;;;;;;;;;;5027323;28;19925;-74
2021/08/27 05:30:25;;;;;;;;;;;;;;;;;;5024785;28;20354;-75
2021/08/27 05:32:54;;;;;;;;;;;;;;;;;;5024448;28;19943;-76
2021/08/27 05:35:21;;;;;;;;;;;;;;;;;;5024436;28;20017;-74
2021/08/27 05:37:48;;;;;;;;;;;;;;;;;;5033163;28;20081;-76
2021/08/27 05:40:15;;;;;;;;;;;;;;;;;;5029380;28;19932;-75
2021/08/27 05:42:42;;;;;;;;;;;;;;;;;;5026886;28;20652;-74
2021/08/27 05:45:09;;;;;;;;;;;;;;;;;;5023471;28;19932;-74
2021/08/27 05:47:36;;;;;;;;;;;;;;;;;;5021645;28;19939;-75
2021/08/27 05:50:03;;;;;;;;;;;;;;;;;;5022588;28;20380;-74
2021/08/27 05:52:30;;;;;;;;;;;;;;;;;;5020112;28;20300;-75
2021/08/27 05:54:57;;;;;;;;;;;;;;;;;;5023918;28;19925;-73
2021/08/27 05:57:24;;;;;;;;;;;;;;;;;;5021741;28;19932;-75
2021/08/27 05:59:51;;;;;;;;;;;;;;;;;;5028593;28;19933;-75
2021/08/27 06:02:19;;;;;;;;;;;;;;;;;;5029691;28;19937;-73
2021/08/27 06:04:46;;;;;;;;;;;;;;;;;;5023909;28;19944;-75
2021/08/27 06:07:13;;;;;;;;;;;;;;;;;;5024678;28;19935;-75
2021/08/27 06:09:41;;;;;;;;;;;;;;;;;;5030884;28;20320;-75
2021/08/27 06:12:09;;;;;;;;;;;;;;;;;;5026230;28;20008;-74
2021/08/27 06:14:35;;;;;;;;;;;;;;;;;;5016381;28;20333;-74
2021/08/27 06:17:02;;;;;;;;;;;;;;;;;;5028182;28;19935;-74
2021/08/27 06:19:29;;;;;;;;;;;;;;;;;;5027912;28;20020;-74
2021/08/27 06:21:58;;;;;;;;;;;;;;;;;;5026850;28;20012;-74
2021/08/27 06:24:25;;;;;;;;;;;;;;;;;;5027857;28;20343;-74
2021/08/27 06:26:51;;;;;;;;;;;;;;;;;;5030593;28;19925;-74
2021/08/27 06:29:18;;;;;;;;;;;;;;;;;;5022443;28;19925;-74
2021/08/27 06:31:45;;;;;;;;;;;;;;;;;;5023994;28;19931;-74
2021/08/27 06:34:12;;;;;;;;;;;;;;;;;;5027390;28;19929;-73
2021/08/27 06:36:39;;;;;;;;;;;;;;;;;;5023970;28;19929;-74
2021/08/27 06:39:06;;;;;;;;;;;;;;;;;;5023957;28;19948;-74
2021/08/27 06:41:33;;;;;;;;;;;;;;;;;;5026539;28;19925;-74
2021/08/27 06:44:00;;;;;;;;;;;;;;;;;;5024975;28;19941;-74
2021/08/27 06:46:27;;;;;;;;;;;;;;;;;;5021761;28;20027;-74
2021/08/27 06:48:54;;;;;;;;;;;;;;;;;;5029001;28;19931;-72
2021/08/27 06:51:21;;;;;;;;;;;;;;;;;;5023733;28;19933;-71
2021/08/27 06:53:53;;;;;;;;;;;;;;;;;;5028718;28;19928;-73
2021/08/27 06:56:20;;;;;;;;;;;;;;;;;;5028140;28;19932;-73
2021/08/27 06:58:47;;;;;;;;;;;;;;;;;;5028303;28;20296;-74
2021/08/27 07:01:14;;;;;;;;;;;;;;;;;;5028372;28;19925;-73
2021/08/27 07:03:41;;;;;;;;;;;;;;;;;;5017740;28;19925;-73
2021/08/27 07:06:08;;;;;;;;;;;;;;;;;;5027875;28;20015;-74
2021/08/27 07:08:35;;;;;;;;;;;;;;;;;;5028353;28;19925;-73
2021/08/27 07:11:02;;;;;;;;;;;;;;;;;;5028567;28;20285;-72
2021/08/27 07:13:29;;;;;;;;;;;;;;;;;;5027674;28;19933;-73
2021/08/27 07:15:56;;;;;;;;;;;;;;;;;;5025558;28;19925;-73
2021/08/27 07:18:23;;;;;;;;;;;;;;;;;;5023238;28;19931;-73
2021/08/27 07:20:50;;;;;;;;;;;;;;;;;;5025676;28;20381;-73
2021/08/27 07:23:17;;;;;;;;;;;;;;;;;;5029122;28;19932;-73
2021/08/27 07:25:44;;;;;;;;;;;;;;;;;;5025413;28;19931;-74
2021/08/27 07:28:11;;;;;;;;;;;;;;;;;;5027854;28;20308;-74
2021/08/27 07:30:39;;;;;;;;;;;;;;;;;;5025726;28;19935;-74
2021/08/27 07:33:06;;;;;;;;;;;;;;;;;;5027071;28;19926;-73
2021/08/27 07:35:33;;;;;;;;;;;;;;;;;;5028630;28;19980;-74
2021/08/27 07:38:00;;;;;;;;;;;;;;;;;;5027685;28;19951;-73
2021/08/27 07:40:27;;;;;;;;;;;;;;;;;;5027752;28;19925;-73
2021/08/27 07:42:54;;;;;;;;;;;;;;;;;;5027097;28;20457;-73
2021/08/27 07:45:21;;;;;;;;;;;;;;;;;;5023833;28;19925;-71
2021/08/27 07:47:48;;;;;;;;;;;;;;;;;;5029736;28;20382;-70
2021/08/27 07:50:15;;;;;;;;;;;;;;;;;;5007830;28;19929;-71
2021/08/27 07:52:42;;;;;;;;;;;;;;;;;;5021621;28;19968;-73
2021/08/27 07:55:09;;;;;;;;;;;;;;;;;;5024637;28;19936;-72
2021/08/27 07:57:36;;;;;;;;;;;;;;;;;;5022023;28;19945;-72
2021/08/27 08:00:03;;;;;;;;;;;;;;;;;;5016624;28;19933;-73
2021/08/27 08:02:30;;;;;;;;;;;;;;;;;;5018531;28;19932;-73
2021/08/27 08:04:57;;;;;;;;;;;;;;;;;;5022651;28;19935;-74
2021/08/27 08:07:24;;;;;;;;;;;;;;;;;;5036221;28;19925;-72
2021/08/27 08:09:50;;;;;;;;;;;;;;;;;;5033605;28;19979;-72
2021/08/27 08:12:18;;;;;;;;;;;;;;;;;;5031611;28;20297;-71
2021/08/27 08:14:45;;;;;;;;;;;;;;;;;;5025896;28;19925;-72
2021/08/27 08:17:12;;;;;;;;;;;;;;;;;;5027501;28;19956;-75
2021/08/27 08:19:39;;;;;;;;;;;;;;;;;;5028782;28;19925;-73
2021/08/27 08:22:05;;;;;;;;;;;;;;;;;;5027327;28;19925;-73
2021/08/27 08:24:32;;;;;;;;;;;;;;;;;;5027830;28;19956;-73
2021/08/27 08:26:59;;;;;;;;;;;;;;;;;;5027027;28;19925;-73
2021/08/27 08:29:26;;;;;;;;;;;;;;;;;;5029257;28;19925;-71
2021/08/27 08:31:53;;;;;;;;;;;;;;;;;;5024975;28;19928;-73
2021/08/27 08:34:20;;;;;;;;;;;;;;;;;;5022816;28;19929;-72
2021/08/27 08:36:47;;;;;;;;;;;;;;;;;;5028289;28;20278;-72
2021/08/27 08:39:14;;;;;;;;;;;;;;;;;;5027308;28;19932;-69
2021/08/27 08:41:41;;;;;;;;;;;;;;;;;;5025870;28;20091;-70
2021/08/27 08:44:08;;;;;;;;;;;;;;;;;;5026658;28;19925;-70
2021/08/27 08:46:35;;;;;;;;;;;;;;;;;;5020176;28;19925;-70
2021/08/27 08:49:02;;;;;;;;;;;;;;;;;;5016827;28;19964;-69
2021/08/27 08:51:29;;;;;;;;;;;;;;;;;;5019431;28;19929;-70
2021/08/27 08:53:56;;;;;;;;;;;;;;;;;;5022583;28;19936;-70
2021/08/27 08:56:23;;;;;;;;;;;;;;;;;;5017562;28;19925;-70
2021/08/27 08:58:50;;;;;;;;;;;;;;;;;;5018246;28;19929;-71
2021/08/27 09:01:20;;;;;;;;;;;;;;;;;;5026906;28;20296;-69
2021/08/27 09:03:47;;;;;;;;;;;;;;;;;;5026746;28;19925;-71
2021/08/27 09:06:14;;;;;;;;;;;;;;;;;;5026811;28;19935;-71
2021/08/27 09:08:41;;;;;;;;;;;;;;;;;;5028298;28;19925;-71
2021/08/27 09:11:08;;;;;;;;;;;;;;;;;;5021141;28;19931;-70
2021/08/27 09:13:35;;;;;;;;;;;;;;;;;;5026213;28;20027;-71
2021/08/27 09:16:02;;;;;;;;;;;;;;;;;;5030932;28;20361;-71
2021/08/27 09:18:28;;;;;;;;;;;;;;;;;;5023183;28;19935;-70
2021/08/27 09:20:55;;;;;;;;;;;;;;;;;;5015981;28;19934;-69
2021/08/27 09:23:22;;;;;;;;;;;;;;;;;;5026754;28;20600;-69
2021/08/27 09:25:49;;;;;;;;;;;;;;;;;;5022419;28;20007;-69
2021/08/27 09:28:17;;;;;;;;;;;;;;;;;;5021565;28;20023;-69
2021/08/27 09:30:44;;;;;;;;;;;;;;;;;;5020251;28;19980;-69
2021/08/27 09:33:11;;;;;;;;;;;;;;;;;;5025624;28;19925;-69
2021/08/27 09:35:38;;;;;;;;;;;;;;;;;;5031186;28;20029;-69
2021/08/27 09:38:05;;;;;;;;;;;;;;;;;;5030335;28;20015;-69
2021/08/27 09:40:32;;;;;;;;;;;;;;;;;;5028918;28;20393;-70
2021/08/27 09:42:59;;;;;;;;;;;;;;;;;;5052300;22;20316;-64
2021/08/27 09:45:26;;;;;;;;;;;;;;;;;;5053645;28;19925;-66
2021/08/27 09:47:53;;;;;;;;;;;;;;;;;;5052229;28;19925;-66
2021/08/27 09:50:20;;;;;;;;;;;;;;;;;;5047486;28;19931;-67
2021/08/27 09:52:47;;;;;;;;;;;;;;;;;;5050008;28;19925;-64
2021/08/27 09:55:14;;;;;;;;;;;;;;;;;;5048097;28;19940;-64
2021/08/27 09:57:43;;;;;;;;;;;;;;;;;;5046490;28;19928;-64
2021/08/27 10:00:10;;;;;;;;;;;;;;;;;;5043013;28;20446;-64
2021/08/27 10:02:37;;;;;;;;;;;;;;;;;;5042697;28;19932;-64
2021/08/27 10:05:04;;;;;;;;;;;;;;;;;;5045563;28;19935;-64
2021/08/27 10:07:32;;;;;;;;;;;;;;;;;;5042805;28;20426;-65
2021/08/27 10:09:59;;;;;;;;;;;;;;;;;;5041259;28;19933;-65
2021/08/27 10:12:26;;;;;;;;;;;;;;;;;;5040793;28;20208;-64
2021/08/27 10:14:53;;;;;;;;;;;;;;;;;;5040318;28;19931;-64
2021/08/27 10:17:20;;;;;;;;;;;;;;;;;;5038356;28;20020;-66
2021/08/27 10:19:47;;;;;;;;;;;;;;;;;;5042041;28;19933;-63
2021/08/27 10:22:14;;;;;;;;;;;;;;;;;;5046699;28;20035;-63
2021/08/27 10:24:43;;;;;;;;;;;;;;;;;;5045963;28;19928;-66
2021/08/27 10:27:10;;;;;;;;;;;;;;;;;;5043029;28;20002;-65
2021/08/27 10:29:37;;;;;;;;;;;;;;;;;;5047240;28;19925;-64
2021/08/27 10:32:04;;;;;;;;;;;;;;;;;;5045114;28;19933;-64
2021/08/27 10:34:31;;;;;;;;;;;;;;;;;;5048612;28;19929;-64
2021/08/27 10:36:58;;;;;;;;;;;;;;;;;;5046507;28;19936;-65
2021/08/27 10:39:25;;;;;;;;;;;;;;;;;;5045058;28;19924;-65
2021/08/27 10:41:52;;;;;;;;;;;;;;;;;;5044805;28;20293;-65
2021/08/27 10:44:19;;;;;;;;;;;;;;;;;;5045214;28;20384;-65
2021/08/27 10:46:45;;;;;;;;;;;;;;;;;;5050766;28;19944;-65
2021/08/27 10:49:12;;;;;;;;;;;;;;;;;;5045680;28;19932;-65
2021/08/27 10:51:39;;;;;;;;;;;;;;;;;;5047670;28;19924;-65
2021/08/27 10:54:06;;;;;;;;;;;;;;;;;;5048887;28;19925;-65
2021/08/27 10:56:33;;;;;;;;;;;;;;;;;;5049867;28;19925;-65
2021/08/27 10:59:00;;;;;;;;;;;;;;;;;;5046851;28;19931;-65
2021/08/27 11:01:27;;;;;;;;;;;;;;;;;;5043920;28;20039;-65
2021/08/27 11:03:54;;;;;;;;;;;;;;;;;;5038132;28;19937;-63
2021/08/27 11:06:21;;;;;;;;;;;;;;;;;;5041209;28;19953;-64
2021/08/27 11:08:48;;;;;;;;;;;;;;;;;;5043811;28;19929;-64
2021/08/27 11:11:15;;;;;;;;;;;;;;;;;;5038884;28;19931;-64
2021/08/27 11:13:42;;;;;;;;;;;;;;;;;;5038971;28;19964;-65
2021/08/27 11:16:09;;;;;;;;;;;;;;;;;;5036989;28;19984;-64
2021/08/27 11:18:36;;;;;;;;;;;;;;;;;;5043664;28;19963;-64
2021/08/27 11:21:03;;;;;;;;;;;;;;;;;;5034132;28;20536;-64
2021/08/27 11:23:30;;;;;;;;;;;;;;;;;;5044462;28;19931;-65
2021/08/27 11:25:57;;;;;;;;;;;;;;;;;;5045874;28;20015;-64
2021/08/27 11:28:24;;;;;;;;;;;;;;;;;;5045746;28;19929;-65
2021/08/27 11:30:51;;;;;;;;;;;;;;;;;;5045135;28;19924;-64
2021/08/27 11:33:18;;;;;;;;;;;;;;;;;;5045929;28;20354;-65
2021/08/27 11:35:45;;;;;;;;;;;;;;;;;;5045889;28;20396;-65
2021/08/27 11:38:12;;;;;;;;;;;;;;;;;;5038691;28;19932;-65
2021/08/27 11:40:39;;;;;;;;;;;;;;;;;;5043110;28;19925;-64
2021/08/27 11:43:06;;;;;;;;;;;;;;;;;;5041921;28;19932;-64
2021/08/27 11:45:34;;;;;;;;;;;;;;;;;;5044425;28;20399;-67
2021/08/27 11:48:01;;;;;;;;;;;;;;;;;;5047619;28;19956;-65
2021/08/27 11:50:28;;;;;;;;;;;;;;;;;;5045336;28;19928;-65
2021/08/27 11:52:55;;;;;;;;;;;;;;;;;;5046775;28;19924;-65
2021/08/27 11:55:21;;;;;;;;;;;;;;;;;;5046207;28;19928;-63
2021/08/27 11:57:49;;;;;;;;;;;;;;;;;;5044688;28;19936;-66
2021/08/27 12:00:16;;;;;;;;;;;;;;;;;;5044676;28;19933;-66
2021/08/27 12:02:43;;;;;;;;;;;;;;;;;;5047315;28;19931;-66
2021/08/27 12:05:11;;;;;;;;;;;;;;;;;;5045920;28;20011;-66
2021/08/27 12:07:40;;;;;;;;;;;;;;;;;;5046289;28;20385;-67
2021/08/27 12:10:08;;;;;;;;;;;;;;;;;;5044600;28;19925;-64
2021/08/27 12:12:36;;;;;;;;;;;;;;;;;;5053720;28;19924;-63
2021/08/27 12:15:03;;;;;;;;;;;;;;;;;;5052746;28;19931;-65
2021/08/27 12:17:30;;;;;;;;;;;;;;;;;;5046311;28;19958;-65
2021/08/27 12:19:57;;;;;;;;;;;;;;;;;;5043984;28;20377;-63
2021/08/27 12:22:24;;;;;;;;;;;;;;;;;;5043827;28;20160;-63
2021/08/27 12:24:51;;;;;;;;;;;;;;;;;;5046814;28;19935;-62
2021/08/27 12:27:18;;;;;;;;;;;;;;;;;;5046373;28;19952;-63
2021/08/27 12:29:45;;;;;;;;;;;;;;;;;;5042071;28;19959;-63
2021/08/27 12:32:12;;;;;;;;;;;;;;;;;;5042997;28;20036;-63
2021/08/27 12:34:41;;;;;;;;;;;;;;;;;;5049860;28;19928;-63
2021/08/27 12:37:08;;;;;;;;;;;;;;;;;;5043909;28;20317;-63
2021/08/27 12:39:35;;;;;;;;;;;;;;;;;;5046403;28;20347;-60
2021/08/27 12:42:02;;;;;;;;;;;;;;;;;;5044736;28;20019;-64
2021/08/27 12:44:29;;;;;;;;;;;;;;;;;;5044750;28;20376;-61
2021/08/27 12:46:56;;;;;;;;;;;;;;;;;;5047198;28;20039;-63
2021/08/27 12:49:23;;;;;;;;;;;;;;;;;;5041882;28;19933;-64
2021/08/27 12:51:51;;;;;;;;;;;;;;;;;;5046050;28;19936;-60
2021/08/27 12:54:18;;;;;;;;;;;;;;;;;;5048629;28;19925;-63
2021/08/27 12:56:45;;;;;;;;;;;;;;;;;;5044660;28;19933;-63
2021/08/27 12:59:12;;;;;;;;;;;;;;;;;;5045968;28;19947;-62
2021/08/27 13:01:39;;;;;;;;;;;;;;;;;;5043266;28;20396;-66
2021/08/27 13:04:06;;;;;;;;;;;;;;;;;;5044973;28;19929;-65
2021/08/27 13:06:33;;;;;;;;;;;;;;;;;;5048486;28;19924;-66
2021/08/27 13:09:00;;;;;;;;;;;;;;;;;;5043578;28;19932;-64
2021/08/27 13:11:27;;;;;;;;;;;;;;;;;;5044616;28;19960;-65
2021/08/27 13:13:55;;;;;;;;;;;;;;;;;;5042560;28;19963;-65
2021/08/27 13:16:24;;;;;;;;;;;;;;;;;;5042261;28;19925;-65
2021/08/27 13:18:51;;;;;;;;;;;;;;;;;;5044728;28;20456;-66
2021/08/27 13:21:18;;;;;;;;;;;;;;;;;;5044364;28;19925;-64
2021/08/27 13:23:45;;;;;;;;;;;;;;;;;;5042235;28;20021;-65
2021/08/27 13:26:13;;;;;;;;;;;;;;;;;;5045988;28;20304;-64
2021/08/27 13:28:40;;;;;;;;;;;;;;;;;;5043859;28;19935;-64
2021/08/27 13:31:07;;;;;;;;;;;;;;;;;;5042962;28;19925;-64
2021/08/27 13:33:34;;;;;;;;;;;;;;;;;;5045253;28;19931;-65
2021/08/27 13:36:01;;;;;;;;;;;;;;;;;;5044341;28;19978;-64
2021/08/27 13:38:28;;;;;;;;;;;;;;;;;;5047141;28;19932;-64
2021/08/27 13:40:56;;;;;;;;;;;;;;;;;;5043459;28;20027;-66
2021/08/27 13:43:23;;;;;;;;;;;;;;;;;;5044049;28;19940;-64
2021/08/27 13:45:50;;;;;;;;;;;;;;;;;;5043441;28;20466;-66
2021/08/27 13:48:17;;;;;;;;;;;;;;;;;;5044341;28;20192;-64
2021/08/27 13:50:44;;;;;;;;;;;;;;;;;;5045161;28;19925;-65
2021/08/27 13:53:11;;;;;;;;;;;;;;;;;;5044716;28;19932;-64
2021/08/27 13:55:38;;;;;;;;;;;;;;;;;;5045042;28;20373;-66
2021/08/27 13:58:05;;;;;;;;;;;;;;;;;;5045164;28;20022;-65
2021/08/27 14:00:32;;;;;;;;;;;;;;;;;;5046293;28;20346;-65
2021/08/27 14:02:59;;;;;;;;;;;;;;;;;;5043452;28;20007;-65
2021/08/27 14:05:26;;;;;;;;;;;;;;;;;;5046695;28;19932;-65
2021/08/27 14:07:53;;;;;;;;;;;;;;;;;;5052310;28;19960;-65
2021/08/27 14:10:20;;;;;;;;;;;;;;;;;;5051761;28;19928;-65
2021/08/27 14:12:50;;;;;;;;;;;;;;;;;;5051695;28;19936;-65
2021/08/27 14:15:17;;;;;;;;;;;;;;;;;;5051938;28;19928;-65
2021/08/27 14:17:44;;;;;;;;;;;;;;;;;;5054153;28;19924;-64
2021/08/27 14:20:11;;;;;;;;;;;;;;;;;;5052518;28;19932;-67
2021/08/27 14:22:38;;;;;;;;;;;;;;;;;;5054209;28;20011;-65
2021/08/27 14:25:05;;;;;;;;;;;;;;;;;;5054841;28;20015;-65
2021/08/27 14:27:32;;;;;;;;;;;;;;;;;;5056570;28;19925;-65
2021/08/27 14:30:04;;;;;;;;;;;;;;;;;;5058636;28;19956;-65
2021/08/27 14:32:31;;;;;;;;;;;;;;;;;;5058828;28;19967;-65
2021/08/27 14:34:58;;;;;;;;;;;;;;;;;;5056915;28;19925;-66
2021/08/27 14:37:26;;;;;;;;;;;;;;;;;;5050041;28;20392;-65
2021/08/27 14:39:53;;;;;;;;;;;;;;;;;;5044525;28;19929;-64
2021/08/27 14:42:20;;;;;;;;;;;;;;;;;;5049006;28;20445;-63
2021/08/27 14:44:47;;;;;;;;;;;;;;;;;;5047319;28;19933;-64
2021/08/27 14:47:14;;;;;;;;;;;;;;;;;;5046340;28;19991;-67
2021/08/27 14:49:41;;;;;;;;;;;;;;;;;;5050367;28;19925;-64
2021/08/27 14:52:08;;;;;;;;;;;;;;;;;;5050047;28;20056;-65
2021/08/27 14:54:35;;;;;;;;;;;;;;;;;;5052882;28;19928;-65
2021/08/27 14:57:02;;;;;;;;;;;;;;;;;;5049088;28;19928;-64
2021/08/27 14:59:29;;;;;;;;;;;;;;;;;;5054454;28;19931;-67
2021/08/27 15:01:57;;;;;;;;;;;;;;;;;;5052154;28;19929;-68
2021/08/27 15:04:24;;;;;;;;;;;;;;;;;;5047411;28;19956;-66
2021/08/27 15:06:51;;;;;;;;;;;;;;;;;;5048865;28;19925;-67
2021/08/27 15:09:25;;;;;;;;;;;;;;;;;;5047903;28;20333;-68
2021/08/27 15:11:52;;;;;;;;;;;;;;;;;;5048684;28;20489;-67
2021/08/27 15:14:20;;;;;;;;;;;;;;;;;;5049537;28;19947;-66
2021/08/27 15:16:47;;;;;;;;;;;;;;;;;;5044483;28;19968;-67
2021/08/27 15:19:14;;;;;;;;;;;;;;;;;;5047493;28;19931;-65
2021/08/27 15:21:41;;;;;;;;;;;;;;;;;;5054316;28;20014;-66
2021/08/27 15:24:08;;;;;;;;;;;;;;;;;;5046933;28;19929;-67
2021/08/27 15:26:35;;;;;;;;;;;;;;;;;;5048619;28;19925;-67
2021/08/27 15:29:02;;;;;;;;;;;;;;;;;;5047795;28;19929;-66
2021/08/27 15:31:29;;;;;;;;;;;;;;;;;;5046067;28;19929;-67
2021/08/27 15:33:57;;;;;;;;;;;;;;;;;;5049489;28;19931;-65
2021/08/27 15:36:24;;;;;;;;;;;;;;;;;;5045701;28;19928;-65
2021/08/27 15:38:51;;;;;;;;;;;;;;;;;;5049984;28;19935;-64
2021/08/27 15:41:18;;;;;;;;;;;;;;;;;;5049724;28;19929;-65
2021/08/27 15:43:45;;;;;;;;;;;;;;;;;;5046359;28;20277;-65
2021/08/27 15:46:13;;;;;;;;;;;;;;;;;;5039316;28;20188;-64
2021/08/27 15:48:40;;;;;;;;;;;;;;;;;;5042959;28;20015;-65
2021/08/27 15:51:07;;;;;;;;;;;;;;;;;;5044654;28;20032;-65
2021/08/27 15:53:35;;;;;;;;;;;;;;;;;;5043288;28;19924;-67
2021/08/27 15:56:02;;;;;;;;;;;;;;;;;;5042602;28;19972;-67
2021/08/27 15:58:29;;;;;;;;;;;;;;;;;;5041917;28;19925;-67
2021/08/27 16:00:56;;;;;;;;;;;;;;;;;;5043107;28;20325;-67
2021/08/27 16:03:23;;;;;;;;;;;;;;;;;;5044345;28;20320;-67
2021/08/27 16:05:50;;;;;;;;;;;;;;;;;;5044247;28;19955;-67
2021/08/27 16:08:17;;;;;;;;;;;;;;;;;;5043090;28;20392;-67
2021/08/27 16:10:44;;;;;;;;;;;;;;;;;;5044024;28;19936;-67
2021/08/27 16:13:11;;;;;;;;;;;;;;;;;;5044665;28;20377;-67
2021/08/27 16:15:38;;;;;;;;;;;;;;;;;;5046134;28;19925;-67
2021/08/27 16:18:07;;;;;;;;;;;;;;;;;;5044725;28;20253;-67
2021/08/27 16:20:34;;;;;;;;;;;;;;;;;;5045614;28;19925;-67
2021/08/27 16:23:01;;;;;;;;;;;;;;;;;;5044131;28;19929;-67
2021/08/27 16:25:28;;;;;;;;;;;;;;;;;;5047038;28;20007;-67
2021/08/27 16:27:55;;;;;;;;;;;;;;;;;;5045500;28;19925;-66
2021/08/27 16:30:22;;;;;;;;;;;;;;;;;;5048517;28;20312;-66
2021/08/27 16:32:49;;;;;;;;;;;;;;;;;;5043262;28;19931;-66
2021/08/27 16:35:16;;;;;;;;;;;;;;;;;;5047453;28;19929;-66
2021/08/27 16:37:43;;;;;;;;;;;;;;;;;;5042855;28;20418;-66
2021/08/27 16:40:10;;;;;;;;;;;;;;;;;;5046656;28;20032;-66
2021/08/27 16:42:37;;;;;;;;;;;;;;;;;;5046613;28;19940;-65
2021/08/27 16:45:04;;;;;;;;;;;;;;;;;;5046069;28;20400;-65